sensor_id;sensor_type;location;lat;lon;timestamp;P1;durP1;ratioP1;P2;durP2;ratioP2
52468;SDS011;38381;53.688;10.776;2022-09-14T00:04:29;5.28;;;2.72;;
52468;SDS011;38381;53.688;10.776;2022-09-14T00:09:29;4.07;;;1.98;;
52468;SDS011;38381;53.688;10.776;2022-09-14T00:14:29;2.63;;;1.90;;
52468;SDS011;38381;53.688;10.776;2022-09-14T00:19:30;4.53;;;1.93;;
52468;SDS011;38381;53.688;10.776;2022-09-14T00:24:30;2.83;;;2.03;;
52468;SDS011;38381;53.688;10.776;2022-09-14T00:29:30;10.82;;;2.60;;
52468;SDS011;38381;53.688;10.776;2022-09-14T00:34:32;5.73;;;2.17;;
52468;SDS011;38381;53.688;10.776;2022-09-14T00:39:33;9.35;;;2.47;;
52468;SDS011;38381;53.688;10.776;2022-09-14T00:49:37;5.65;;;2.40;;
52468;SDS011;38381;53.688;10.776;2022-09-14T00:54:44;7.47;;;2.13;;
52468;SDS011;38381;53.688;10.776;2022-09-14T00:59:50;6.05;;;1.63;;
52468;SDS011;38381;53.688;10.776;2022-09-14T01:04:51;4.20;;;1.85;;
52468;SDS011;38381;53.688;10.776;2022-09-14T01:20:28;3.65;;;2.35;;
52468;SDS011;38381;53.688;10.776;2022-09-14T01:25:44;5.32;;;2.20;;
52468;SDS011;38381;53.688;10.776;2022-09-14T01:30:50;6.03;;;2.13;;
52468;SDS011;38381;53.688;10.776;2022-09-14T01:40:55;5.00;;;2.42;;
52468;SDS011;38381;53.688;10.776;2022-09-14T01:45:58;3.38;;;1.73;;
52468;SDS011;38381;53.688;10.776;2022-09-14T01:51:12;4.90;;;2.08;;
52468;SDS011;38381;53.688;10.776;2022-09-14T01:56:18;6.95;;;2.50;;
52468;SDS011;38381;53.688;10.776;2022-09-14T02:01:44;6.57;;;2.47;;
52468;SDS011;38381;53.688;10.776;2022-09-14T02:06:46;4.82;;;2.63;;
52468;SDS011;38381;53.688;10.776;2022-09-14T02:11:47;6.00;;;2.72;;
52468;SDS011;38381;53.688;10.776;2022-09-14T02:16:48;9.13;;;2.47;;
52468;SDS011;38381;53.688;10.776;2022-09-14T02:21:48;3.58;;;2.20;;
52468;SDS011;38381;53.688;10.776;2022-09-14T02:26:49;7.55;;;2.47;;
52468;SDS011;38381;53.688;10.776;2022-09-14T02:37:58;7.25;;;2.33;;
52468;SDS011;38381;53.688;10.776;2022-09-14T02:53:42;4.82;;;2.38;;
52468;SDS011;38381;53.688;10.776;2022-09-14T02:58:48;3.95;;;2.33;;
52468;SDS011;38381;53.688;10.776;2022-09-14T03:03:49;2.80;;;2.17;;
52468;SDS011;38381;53.688;10.776;2022-09-14T03:08:49;6.68;;;2.00;;
52468;SDS011;38381;53.688;10.776;2022-09-14T03:13:50;5.85;;;2.47;;
52468;SDS011;38381;53.688;10.776;2022-09-14T03:18:50;3.85;;;1.90;;
52468;SDS011;38381;53.688;10.776;2022-09-14T03:23:51;8.88;;;3.00;;
52468;SDS011;38381;53.688;10.776;2022-09-14T03:28:55;3.45;;;2.13;;
52468;SDS011;38381;53.688;10.776;2022-09-14T03:33:57;4.03;;;2.28;;
52468;SDS011;38381;53.688;10.776;2022-09-14T03:38:59;5.60;;;2.00;;
52468;SDS011;38381;53.688;10.776;2022-09-14T03:44:00;7.57;;;2.28;;
52468;SDS011;38381;53.688;10.776;2022-09-14T03:49:01;5.38;;;2.15;;
52468;SDS011;38381;53.688;10.776;2022-09-14T03:54:01;7.35;;;2.22;;
52468;SDS011;38381;53.688;10.776;2022-09-14T03:59:01;5.07;;;2.05;;
52468;SDS011;38381;53.688;10.776;2022-09-14T04:04:02;5.85;;;2.15;;
52468;SDS011;38381;53.688;10.776;2022-09-14T04:09:03;6.45;;;2.47;;
52468;SDS011;38381;53.688;10.776;2022-09-14T04:14:03;7.45;;;2.75;;
52468;SDS011;38381;53.688;10.776;2022-09-14T04:19:05;10.25;;;3.50;;
52468;SDS011;38381;53.688;10.776;2022-09-14T04:24:05;5.30;;;2.65;;
52468;SDS011;38381;53.688;10.776;2022-09-14T04:29:05;3.10;;;2.57;;
52468;SDS011;38381;53.688;10.776;2022-09-14T04:34:06;8.80;;;2.77;;
52468;SDS011;38381;53.688;10.776;2022-09-14T04:39:06;5.72;;;2.80;;
52468;SDS011;38381;53.688;10.776;2022-09-14T04:44:09;6.53;;;2.05;;
52468;SDS011;38381;53.688;10.776;2022-09-14T04:49:09;6.38;;;2.47;;
52468;SDS011;38381;53.688;10.776;2022-09-14T04:54:12;3.93;;;2.80;;
52468;SDS011;38381;53.688;10.776;2022-09-14T04:59:14;7.50;;;3.33;;
52468;SDS011;38381;53.688;10.776;2022-09-14T05:04:15;8.35;;;3.63;;
52468;SDS011;38381;53.688;10.776;2022-09-14T05:09:16;6.93;;;2.67;;
52468;SDS011;38381;53.688;10.776;2022-09-14T05:14:17;4.33;;;2.80;;
52468;SDS011;38381;53.688;10.776;2022-09-14T05:19:17;7.93;;;3.40;;
52468;SDS011;38381;53.688;10.776;2022-09-14T05:24:18;7.45;;;2.20;;
52468;SDS011;38381;53.688;10.776;2022-09-14T05:29:18;10.00;;;3.70;;
52468;SDS011;38381;53.688;10.776;2022-09-14T05:34:18;8.60;;;3.50;;
52468;SDS011;38381;53.688;10.776;2022-09-14T05:39:19;12.68;;;3.50;;
52468;SDS011;38381;53.688;10.776;2022-09-14T05:44:20;8.90;;;3.60;;
52468;SDS011;38381;53.688;10.776;2022-09-14T05:49:21;7.82;;;3.47;;
52468;SDS011;38381;53.688;10.776;2022-09-14T05:59:24;3.53;;;2.70;;
52468;SDS011;38381;53.688;10.776;2022-09-14T06:04:25;4.53;;;3.30;;
52468;SDS011;38381;53.688;10.776;2022-09-14T06:09:25;5.45;;;2.55;;
52468;SDS011;38381;53.688;10.776;2022-09-14T06:14:27;9.60;;;3.30;;
52468;SDS011;38381;53.688;10.776;2022-09-14T06:19:29;5.85;;;3.08;;
52468;SDS011;38381;53.688;10.776;2022-09-14T06:24:31;4.73;;;2.43;;
52468;SDS011;38381;53.688;10.776;2022-09-14T06:29:35;9.27;;;2.88;;
52468;SDS011;38381;53.688;10.776;2022-09-14T06:34:35;3.78;;;2.38;;
52468;SDS011;38381;53.688;10.776;2022-09-14T06:39:35;11.38;;;3.05;;
52468;SDS011;38381;53.688;10.776;2022-09-14T06:44:36;6.18;;;2.60;;
52468;SDS011;38381;53.688;10.776;2022-09-14T06:49:36;4.53;;;2.08;;
52468;SDS011;38381;53.688;10.776;2022-09-14T06:54:36;3.40;;;2.40;;
52468;SDS011;38381;53.688;10.776;2022-09-14T06:59:38;7.97;;;2.35;;
52468;SDS011;38381;53.688;10.776;2022-09-14T07:04:38;8.70;;;2.78;;
52468;SDS011;38381;53.688;10.776;2022-09-14T07:09:38;7.05;;;2.42;;
52468;SDS011;38381;53.688;10.776;2022-09-14T07:14:39;8.83;;;4.33;;
52468;SDS011;38381;53.688;10.776;2022-09-14T07:19:39;9.82;;;2.55;;
52468;SDS011;38381;53.688;10.776;2022-09-14T07:24:40;5.72;;;2.33;;
52468;SDS011;38381;53.688;10.776;2022-09-14T07:29:40;9.65;;;2.53;;
52468;SDS011;38381;53.688;10.776;2022-09-14T07:34:40;4.03;;;2.28;;
52468;SDS011;38381;53.688;10.776;2022-09-14T07:39:40;7.32;;;3.33;;
52468;SDS011;38381;53.688;10.776;2022-09-14T07:44:40;6.75;;;2.08;;
52468;SDS011;38381;53.688;10.776;2022-09-14T07:49:41;3.92;;;1.98;;
52468;SDS011;38381;53.688;10.776;2022-09-14T07:54:41;6.45;;;2.65;;
52468;SDS011;38381;53.688;10.776;2022-09-14T07:59:42;8.23;;;2.80;;
52468;SDS011;38381;53.688;10.776;2022-09-14T08:04:42;6.50;;;2.10;;
52468;SDS011;38381;53.688;10.776;2022-09-14T08:09:42;4.68;;;2.20;;
52468;SDS011;38381;53.688;10.776;2022-09-14T08:14:44;5.63;;;2.42;;
52468;SDS011;38381;53.688;10.776;2022-09-14T08:19:44;7.75;;;3.13;;
52468;SDS011;38381;53.688;10.776;2022-09-14T08:24:44;2.73;;;1.67;;
52468;SDS011;38381;53.688;10.776;2022-09-14T08:29:45;6.17;;;2.57;;
52468;SDS011;38381;53.688;10.776;2022-09-14T08:34:45;2.65;;;1.90;;
52468;SDS011;38381;53.688;10.776;2022-09-14T08:39:46;5.60;;;1.90;;
52468;SDS011;38381;53.688;10.776;2022-09-14T08:44:56;4.93;;;2.53;;
52468;SDS011;38381;53.688;10.776;2022-09-14T08:50:14;2.88;;;1.55;;
52468;SDS011;38381;53.688;10.776;2022-09-14T09:00:41;3.78;;;1.80;;
52468;SDS011;38381;53.688;10.776;2022-09-14T09:11:14;6.35;;;2.08;;
52468;SDS011;38381;53.688;10.776;2022-09-14T09:16:22;2.55;;;1.48;;
52468;SDS011;38381;53.688;10.776;2022-09-14T09:21:28;1.83;;;1.30;;
52468;SDS011;38381;53.688;10.776;2022-09-14T09:26:39;3.42;;;1.85;;
52468;SDS011;38381;53.688;10.776;2022-09-14T09:31:42;3.65;;;2.30;;
52468;SDS011;38381;53.688;10.776;2022-09-14T09:36:46;6.85;;;2.40;;
52468;SDS011;38381;53.688;10.776;2022-09-14T09:41:51;9.45;;;2.38;;
52468;SDS011;38381;53.688;10.776;2022-09-14T09:47:37;4.03;;;1.70;;
52468;SDS011;38381;53.688;10.776;2022-09-14T09:52:49;5.90;;;1.77;;
52468;SDS011;38381;53.688;10.776;2022-09-14T09:57:52;2.30;;;1.90;;
52468;SDS011;38381;53.688;10.776;2022-09-14T10:02:53;3.30;;;1.65;;
52468;SDS011;38381;53.688;10.776;2022-09-14T10:07:55;7.10;;;1.98;;
52468;SDS011;38381;53.688;10.776;2022-09-14T10:12:58;7.47;;;2.13;;
52468;SDS011;38381;53.688;10.776;2022-09-14T10:18:04;3.17;;;1.92;;
52468;SDS011;38381;53.688;10.776;2022-09-14T10:28:19;3.13;;;1.48;;
52468;SDS011;38381;53.688;10.776;2022-09-14T10:33:20;7.70;;;2.10;;
52468;SDS011;38381;53.688;10.776;2022-09-14T10:38:34;3.03;;;1.48;;
52468;SDS011;38381;53.688;10.776;2022-09-14T10:43:55;2.65;;;1.77;;
52468;SDS011;38381;53.688;10.776;2022-09-14T10:49:18;4.70;;;1.75;;
52468;SDS011;38381;53.688;10.776;2022-09-14T10:59:46;6.15;;;1.42;;
52468;SDS011;38381;53.688;10.776;2022-09-14T11:11:18;3.05;;;1.80;;
52468;SDS011;38381;53.688;10.776;2022-09-14T11:21:51;3.72;;;1.77;;
52468;SDS011;38381;53.688;10.776;2022-09-14T11:44:01;5.13;;;2.05;;
52468;SDS011;38381;53.688;10.776;2022-09-14T11:49:30;11.38;;;2.78;;
52468;SDS011;38381;53.688;10.776;2022-09-14T11:54:51;5.43;;;1.70;;
52468;SDS011;38381;53.688;10.776;2022-09-14T11:59:53;3.03;;;1.80;;
52468;SDS011;38381;53.688;10.776;2022-09-14T12:25:37;3.42;;;1.65;;
52468;SDS011;38381;53.688;10.776;2022-09-14T12:35:52;2.33;;;1.50;;
52468;SDS011;38381;53.688;10.776;2022-09-14T12:40:52;4.43;;;1.90;;
52468;SDS011;38381;53.688;10.776;2022-09-14T12:46:38;8.52;;;2.65;;
52468;SDS011;38381;53.688;10.776;2022-09-14T13:06:52;4.90;;;1.88;;
52468;SDS011;38381;53.688;10.776;2022-09-14T13:11:58;6.35;;;2.33;;
52468;SDS011;38381;53.688;10.776;2022-09-14T13:17:01;5.25;;;1.95;;
52468;SDS011;38381;53.688;10.776;2022-09-14T13:22:16;5.10;;;2.00;;
52468;SDS011;38381;53.688;10.776;2022-09-14T13:27:27;4.95;;;2.72;;
52468;SDS011;38381;53.688;10.776;2022-09-14T13:32:30;8.10;;;2.38;;
52468;SDS011;38381;53.688;10.776;2022-09-14T13:37:36;2.70;;;1.83;;
52468;SDS011;38381;53.688;10.776;2022-09-14T13:42:38;4.35;;;1.73;;
52468;SDS011;38381;53.688;10.776;2022-09-14T13:47:40;3.58;;;1.90;;
52468;SDS011;38381;53.688;10.776;2022-09-14T13:52:41;5.65;;;2.05;;
52468;SDS011;38381;53.688;10.776;2022-09-14T14:03:05;4.28;;;2.30;;
52468;SDS011;38381;53.688;10.776;2022-09-14T14:08:16;3.90;;;2.17;;
52468;SDS011;38381;53.688;10.776;2022-09-14T14:13:27;6.25;;;2.28;;
52468;SDS011;38381;53.688;10.776;2022-09-14T14:23:33;5.15;;;2.13;;
52468;SDS011;38381;53.688;10.776;2022-09-14T14:28:34;5.40;;;2.17;;
52468;SDS011;38381;53.688;10.776;2022-09-14T14:33:34;5.50;;;1.50;;
52468;SDS011;38381;53.688;10.776;2022-09-14T14:38:42;2.13;;;1.63;;
52468;SDS011;38381;53.688;10.776;2022-09-14T14:43:43;4.35;;;1.73;;
52468;SDS011;38381;53.688;10.776;2022-09-14T14:48:48;3.78;;;2.15;;
52468;SDS011;38381;53.688;10.776;2022-09-14T14:53:48;2.63;;;1.30;;
52468;SDS011;38381;53.688;10.776;2022-09-14T14:58:49;5.38;;;1.50;;
52468;SDS011;38381;53.688;10.776;2022-09-14T15:03:49;2.97;;;1.58;;
52468;SDS011;38381;53.688;10.776;2022-09-14T15:08:53;2.58;;;1.83;;
52468;SDS011;38381;53.688;10.776;2022-09-14T15:13:55;7.15;;;2.58;;
52468;SDS011;38381;53.688;10.776;2022-09-14T15:18:55;8.93;;;2.50;;
52468;SDS011;38381;53.688;10.776;2022-09-14T15:23:55;2.83;;;1.48;;
52468;SDS011;38381;53.688;10.776;2022-09-14T15:28:57;6.35;;;2.42;;
52468;SDS011;38381;53.688;10.776;2022-09-14T15:33:58;4.32;;;1.52;;
52468;SDS011;38381;53.688;10.776;2022-09-14T15:38:58;4.70;;;2.08;;
52468;SDS011;38381;53.688;10.776;2022-09-14T15:43:59;2.55;;;1.77;;
52468;SDS011;38381;53.688;10.776;2022-09-14T15:49:07;6.85;;;2.08;;
52468;SDS011;38381;53.688;10.776;2022-09-14T15:54:10;4.97;;;2.30;;
52468;SDS011;38381;53.688;10.776;2022-09-14T15:59:11;4.25;;;2.33;;
52468;SDS011;38381;53.688;10.776;2022-09-14T16:04:12;3.08;;;1.88;;
52468;SDS011;38381;53.688;10.776;2022-09-14T16:09:13;3.03;;;1.73;;
52468;SDS011;38381;53.688;10.776;2022-09-14T16:14:14;6.07;;;2.10;;
52468;SDS011;38381;53.688;10.776;2022-09-14T16:19:14;4.25;;;2.28;;
52468;SDS011;38381;53.688;10.776;2022-09-14T16:24:16;3.88;;;2.47;;
52468;SDS011;38381;53.688;10.776;2022-09-14T16:34:23;3.97;;;2.00;;
52468;SDS011;38381;53.688;10.776;2022-09-14T16:39:26;7.03;;;2.15;;
52468;SDS011;38381;53.688;10.776;2022-09-14T16:44:28;5.10;;;1.50;;
52468;SDS011;38381;53.688;10.776;2022-09-14T16:49:29;4.70;;;2.35;;
52468;SDS011;38381;53.688;10.776;2022-09-14T16:54:29;3.65;;;1.90;;
52468;SDS011;38381;53.688;10.776;2022-09-14T16:59:30;10.88;;;2.55;;
52468;SDS011;38381;53.688;10.776;2022-09-14T17:04:31;3.53;;;2.20;;
52468;SDS011;38381;53.688;10.776;2022-09-14T17:09:31;5.83;;;2.43;;
52468;SDS011;38381;53.688;10.776;2022-09-14T17:14:32;6.78;;;1.70;;
52468;SDS011;38381;53.688;10.776;2022-09-14T17:19:32;6.22;;;3.00;;
52468;SDS011;38381;53.688;10.776;2022-09-14T17:24:33;3.50;;;1.80;;
52468;SDS011;38381;53.688;10.776;2022-09-14T17:29:34;2.95;;;2.03;;
52468;SDS011;38381;53.688;10.776;2022-09-14T17:34:37;4.28;;;1.80;;
52468;SDS011;38381;53.688;10.776;2022-09-14T17:39:37;2.70;;;1.70;;
52468;SDS011;38381;53.688;10.776;2022-09-14T17:44:37;2.85;;;1.55;;
52468;SDS011;38381;53.688;10.776;2022-09-14T17:49:39;3.95;;;1.17;;
52468;SDS011;38381;53.688;10.776;2022-09-14T17:54:40;4.60;;;1.50;;
52468;SDS011;38381;53.688;10.776;2022-09-14T17:59:40;4.00;;;1.73;;
52468;SDS011;38381;53.688;10.776;2022-09-14T18:04:40;3.33;;;1.33;;
52468;SDS011;38381;53.688;10.776;2022-09-14T18:09:40;6.70;;;2.13;;
52468;SDS011;38381;53.688;10.776;2022-09-14T18:14:41;4.78;;;2.05;;
52468;SDS011;38381;53.688;10.776;2022-09-14T18:19:41;3.58;;;1.05;;
52468;SDS011;38381;53.688;10.776;2022-09-14T18:24:42;2.10;;;1.10;;
52468;SDS011;38381;53.688;10.776;2022-09-14T18:29:42;1.23;;;0.98;;
52468;SDS011;38381;53.688;10.776;2022-09-14T18:34:42;1.63;;;0.97;;
52468;SDS011;38381;53.688;10.776;2022-09-14T18:39:43;2.25;;;1.38;;
52468;SDS011;38381;53.688;10.776;2022-09-14T18:44:43;3.60;;;1.40;;
52468;SDS011;38381;53.688;10.776;2022-09-14T18:49:44;3.30;;;1.83;;
52468;SDS011;38381;53.688;10.776;2022-09-14T18:54:44;6.82;;;1.95;;
52468;SDS011;38381;53.688;10.776;2022-09-14T18:59:45;2.63;;;1.20;;
52468;SDS011;38381;53.688;10.776;2022-09-14T19:04:45;2.00;;;1.10;;
52468;SDS011;38381;53.688;10.776;2022-09-14T19:09:46;1.42;;;1.33;;
52468;SDS011;38381;53.688;10.776;2022-09-14T19:14:46;2.45;;;1.33;;
52468;SDS011;38381;53.688;10.776;2022-09-14T19:19:49;3.85;;;1.35;;
52468;SDS011;38381;53.688;10.776;2022-09-14T19:24:49;1.27;;;1.00;;
52468;SDS011;38381;53.688;10.776;2022-09-14T19:29:50;2.58;;;1.15;;
52468;SDS011;38381;53.688;10.776;2022-09-14T19:34:51;1.70;;;1.17;;
52468;SDS011;38381;53.688;10.776;2022-09-14T19:39:51;1.73;;;1.05;;
52468;SDS011;38381;53.688;10.776;2022-09-14T19:44:52;1.15;;;1.02;;
52468;SDS011;38381;53.688;10.776;2022-09-14T19:49:52;1.35;;;1.10;;
52468;SDS011;38381;53.688;10.776;2022-09-14T19:54:52;0.85;;;0.85;;
52468;SDS011;38381;53.688;10.776;2022-09-14T19:59:55;3.22;;;1.10;;
52468;SDS011;38381;53.688;10.776;2022-09-14T20:04:55;1.80;;;1.20;;
52468;SDS011;38381;53.688;10.776;2022-09-14T20:09:56;1.35;;;1.20;;
52468;SDS011;38381;53.688;10.776;2022-09-14T20:14:56;2.92;;;1.50;;
52468;SDS011;38381;53.688;10.776;2022-09-14T20:19:56;1.55;;;1.30;;
52468;SDS011;38381;53.688;10.776;2022-09-14T20:24:56;1.23;;;1.00;;
52468;SDS011;38381;53.688;10.776;2022-09-14T20:29:57;1.20;;;1.10;;
52468;SDS011;38381;53.688;10.776;2022-09-14T20:34:57;4.18;;;1.42;;
52468;SDS011;38381;53.688;10.776;2022-09-14T20:39:57;3.30;;;1.27;;
52468;SDS011;38381;53.688;10.776;2022-09-14T20:44:57;2.63;;;1.38;;
52468;SDS011;38381;53.688;10.776;2022-09-14T20:49:58;2.75;;;1.40;;
52468;SDS011;38381;53.688;10.776;2022-09-14T20:54:58;3.22;;;1.17;;
52468;SDS011;38381;53.688;10.776;2022-09-14T20:59:58;3.15;;;1.48;;
52468;SDS011;38381;53.688;10.776;2022-09-14T21:04:58;3.33;;;1.20;;
52468;SDS011;38381;53.688;10.776;2022-09-14T21:09:59;3.13;;;2.00;;
52468;SDS011;38381;53.688;10.776;2022-09-14T21:14:59;2.80;;;1.67;;
52468;SDS011;38381;53.688;10.776;2022-09-14T21:20:00;3.45;;;1.90;;
52468;SDS011;38381;53.688;10.776;2022-09-14T21:25:00;2.40;;;1.67;;
52468;SDS011;38381;53.688;10.776;2022-09-14T21:30:00;3.53;;;1.40;;
52468;SDS011;38381;53.688;10.776;2022-09-14T21:35:00;2.30;;;1.33;;
52468;SDS011;38381;53.688;10.776;2022-09-14T21:40:01;3.45;;;1.60;;
52468;SDS011;38381;53.688;10.776;2022-09-14T21:45:01;2.67;;;2.00;;
52468;SDS011;38381;53.688;10.776;2022-09-14T21:50:01;3.35;;;2.10;;
52468;SDS011;38381;53.688;10.776;2022-09-14T21:55:02;4.43;;;1.75;;
52468;SDS011;38381;53.688;10.776;2022-09-14T22:00:05;5.03;;;2.03;;
52468;SDS011;38381;53.688;10.776;2022-09-14T22:05:08;2.55;;;1.50;;
52468;SDS011;38381;53.688;10.776;2022-09-14T22:10:08;5.70;;;1.95;;
52468;SDS011;38381;53.688;10.776;2022-09-14T22:15:09;3.20;;;1.90;;
52468;SDS011;38381;53.688;10.776;2022-09-14T22:20:10;1.97;;;1.60;;
52468;SDS011;38381;53.688;10.776;2022-09-14T22:25:10;5.28;;;1.75;;
52468;SDS011;38381;53.688;10.776;2022-09-14T22:30:10;2.38;;;1.90;;
52468;SDS011;38381;53.688;10.776;2022-09-14T22:35:11;4.97;;;1.65;;
52468;SDS011;38381;53.688;10.776;2022-09-14T22:40:11;2.80;;;2.03;;
52468;SDS011;38381;53.688;10.776;2022-09-14T22:45:11;4.13;;;2.40;;
52468;SDS011;38381;53.688;10.776;2022-09-14T22:50:12;3.53;;;1.83;;
52468;SDS011;38381;53.688;10.776;2022-09-14T22:55:13;2.75;;;2.03;;
52468;SDS011;38381;53.688;10.776;2022-09-14T23:00:14;6.03;;;2.13;;
52468;SDS011;38381;53.688;10.776;2022-09-14T23:05:14;4.57;;;3.15;;
52468;SDS011;38381;53.688;10.776;2022-09-14T23:10:14;4.22;;;2.97;;
52468;SDS011;38381;53.688;10.776;2022-09-14T23:15:15;5.30;;;2.40;;
52468;SDS011;38381;53.688;10.776;2022-09-14T23:20:15;6.50;;;2.33;;
52468;SDS011;38381;53.688;10.776;2022-09-14T23:25:16;4.57;;;2.88;;
52468;SDS011;38381;53.688;10.776;2022-09-14T23:30:16;3.00;;;2.35;;
52468;SDS011;38381;53.688;10.776;2022-09-14T23:35:16;4.60;;;1.90;;
52468;SDS011;38381;53.688;10.776;2022-09-14T23:40:17;6.28;;;2.83;;
52468;SDS011;38381;53.688;10.776;2022-09-14T23:45:18;3.20;;;2.47;;
52468;SDS011;38381;53.688;10.776;2022-09-14T23:50:18;3.65;;;2.53;;
52468;SDS011;38381;53.688;10.776;2022-09-14T23:55:19;4.15;;;2.47;;
